createdAt,value
2022-10-17T00:00:26.158Z,11.60
2022-10-17T00:03:13.422Z,11.57
2022-10-17T00:06:06.306Z,11.53
2022-10-17T00:08:53.394Z,11.49
2022-10-17T00:11:40.511Z,11.43
2022-10-17T00:14:27.580Z,11.40
2022-10-17T00:17:15.801Z,11.38
2022-10-17T00:20:03.270Z,11.38
2022-10-17T00:22:50.461Z,11.33
2022-10-17T00:25:37.665Z,11.31
2022-10-17T00:28:24.788Z,11.27
2022-10-17T00:31:11.951Z,11.22
2022-10-17T00:33:59.080Z,11.18
2022-10-17T00:36:46.121Z,11.15
2022-10-17T00:39:33.360Z,11.14
2022-10-17T00:42:20.482Z,11.09
2022-10-17T00:45:29.281Z,11.07
2022-10-17T00:48:21.229Z,11.06
2022-10-17T00:51:10.652Z,11.07
2022-10-17T00:53:58.041Z,11.08
2022-10-17T00:56:47.851Z,11.03
2022-10-17T00:59:37.631Z,11.06
2022-10-17T01:02:25.296Z,11.00
2022-10-17T01:05:13.328Z,10.98
2022-10-17T01:08:00.979Z,10.97
2022-10-17T01:11:20.327Z,10.98
2022-10-17T01:14:31.035Z,10.97
2022-10-17T01:17:35.929Z,10.99
2022-10-17T01:20:51.867Z,11.01
2022-10-17T01:23:38.879Z,11.05
2022-10-17T01:26:47.340Z,11.01
2022-10-17T01:29:53.112Z,11.03
2022-10-17T01:32:48.526Z,11.05
2022-10-17T01:35:48.329Z,10.98
2022-10-17T01:38:49.164Z,11.01
2022-10-17T01:41:43.111Z,11.03
2022-10-17T01:44:44.661Z,11.10
2022-10-17T01:47:33.789Z,11.14
2022-10-17T01:50:28.714Z,11.14
2022-10-17T01:53:22.861Z,11.19
2022-10-17T01:56:13.508Z,11.20
2022-10-17T01:59:11.425Z,11.20
2022-10-17T02:01:59.761Z,11.17
2022-10-17T02:04:51.092Z,11.25
2022-10-17T02:07:38.258Z,11.22
2022-10-17T02:10:47.448Z,11.18
2022-10-17T02:14:04.978Z,11.24
2022-10-17T02:16:58.235Z,11.21
2022-10-17T02:19:51.821Z,11.19
2022-10-17T02:22:59.193Z,11.30
2022-10-17T02:25:57.367Z,11.32
2022-10-17T02:28:55.946Z,11.36
2022-10-17T02:32:09.060Z,11.34
2022-10-17T02:35:00.119Z,11.35
2022-10-17T02:37:47.791Z,11.39
2022-10-17T02:40:36.904Z,11.43
2022-10-17T02:43:24.209Z,11.45
2022-10-17T02:46:20.909Z,11.43
2022-10-17T02:49:17.609Z,11.46
2022-10-17T02:52:13.221Z,11.45
2022-10-17T02:55:09.321Z,11.44
2022-10-17T02:58:04.666Z,11.42
2022-10-17T03:00:52.936Z,11.53
2022-10-17T03:03:39.993Z,11.61
2022-10-17T03:06:26.913Z,11.73
2022-10-17T03:09:14.066Z,11.72
2022-10-17T03:12:01.066Z,11.77
2022-10-17T03:14:48.004Z,11.98
2022-10-17T03:17:36.026Z,12.04
2022-10-17T03:20:22.981Z,12.03
2022-10-17T03:23:09.926Z,12.09
2022-10-17T03:25:56.969Z,12.11
2022-10-17T03:28:44.205Z,12.16
2022-10-17T03:31:31.267Z,12.13
2022-10-17T03:34:18.951Z,12.13
2022-10-17T03:37:05.892Z,12.31
2022-10-17T03:39:53.034Z,12.27
2022-10-17T03:42:40.551Z,12.55
2022-10-17T03:45:27.526Z,12.41
2022-10-17T03:48:14.425Z,12.35
2022-10-17T03:51:04.220Z,12.60
2022-10-17T03:53:51.241Z,12.58
2022-10-17T03:56:38.353Z,12.63
2022-10-17T03:59:25.469Z,12.62
2022-10-17T04:02:12.464Z,12.85
2022-10-17T04:04:59.725Z,12.76
2022-10-17T04:07:46.706Z,12.75
2022-10-17T04:10:33.594Z,12.75
2022-10-17T04:13:20.556Z,12.75
2022-10-17T04:16:11.908Z,12.92
2022-10-17T04:18:59.926Z,12.87
2022-10-17T04:21:46.994Z,12.81
2022-10-17T04:24:34.328Z,12.84
2022-10-17T04:27:21.308Z,12.91
2022-10-17T04:30:08.463Z,12.81
2022-10-17T04:32:55.433Z,12.82
2022-10-17T04:35:42.374Z,12.78
2022-10-17T04:38:30.431Z,12.68
2022-10-17T04:41:18.922Z,12.65
2022-10-17T04:44:05.897Z,13.00
2022-10-17T04:46:52.844Z,13.08
2022-10-17T04:52:27.264Z,12.92
2022-10-17T04:55:14.489Z,12.85
2022-10-17T04:58:01.401Z,12.78
2022-10-17T05:00:48.455Z,12.96
2022-10-17T05:03:35.506Z,13.18
2022-10-17T05:06:24.773Z,13.13
2022-10-17T05:09:11.713Z,13.24
2022-10-17T05:11:58.734Z,13.41
2022-10-17T05:14:45.625Z,13.74
2022-10-17T05:17:32.594Z,13.68
2022-10-17T05:20:19.502Z,13.61
2022-10-17T05:23:06.461Z,13.52
2022-10-17T05:25:56.949Z,13.48
2022-10-17T05:28:44.010Z,13.80
2022-10-17T05:31:31.803Z,13.80
2022-10-17T05:34:18.813Z,13.64
2022-10-17T05:37:05.807Z,13.65
2022-10-17T05:39:52.758Z,13.78
2022-10-17T05:45:26.594Z,13.86
2022-10-17T05:48:13.551Z,13.84
2022-10-17T05:51:03.704Z,13.83
2022-10-17T05:53:50.726Z,13.79
2022-10-17T05:56:37.631Z,13.72
2022-10-17T05:59:25.733Z,13.69
2022-10-17T06:02:13.237Z,13.73
2022-10-17T06:05:00.366Z,13.69
2022-10-17T06:07:49.205Z,13.66
2022-10-17T06:10:36.190Z,13.70
2022-10-17T06:13:23.084Z,13.78
2022-10-17T06:16:10.063Z,13.84
2022-10-17T06:18:56.987Z,14.01
2022-10-17T06:21:43.995Z,13.84
2022-10-17T06:24:30.973Z,14.07
2022-10-17T06:27:17.978Z,14.11
2022-10-17T06:30:05.408Z,14.06
2022-10-17T06:32:53.494Z,14.11
2022-10-17T06:35:40.504Z,14.08
2022-10-17T06:38:29.504Z,14.14
2022-10-17T06:41:19.310Z,14.20
2022-10-17T06:44:11.060Z,14.18
2022-10-17T06:47:01.306Z,14.37
2022-10-17T06:49:48.294Z,14.37
2022-10-17T06:52:35.234Z,14.43
2022-10-17T06:55:23.281Z,14.52
2022-10-17T06:58:10.444Z,14.62
2022-10-17T07:01:10.236Z,14.81
2022-10-17T07:03:57.329Z,14.96
2022-10-17T07:06:44.615Z,15.07
2022-10-17T07:09:32.973Z,15.20
2022-10-17T07:12:19.954Z,15.34
2022-10-17T07:15:07.406Z,15.50
2022-10-17T07:17:54.454Z,15.55
2022-10-17T07:20:41.609Z,15.72
2022-10-17T07:23:28.646Z,15.82
2022-10-17T07:26:17.515Z,15.91
2022-10-17T07:29:06.490Z,15.94
2022-10-17T07:31:53.527Z,16.02
2022-10-17T07:34:40.500Z,16.09
2022-10-17T07:37:27.720Z,16.21
2022-10-17T07:40:15.177Z,16.28
2022-10-17T07:43:02.232Z,16.35
2022-10-17T07:45:49.247Z,16.53
2022-10-17T07:48:36.218Z,16.53
2022-10-17T07:51:23.185Z,16.65
2022-10-17T07:54:10.292Z,16.81
2022-10-17T07:56:57.281Z,16.90
2022-10-17T07:59:45.245Z,16.96
2022-10-17T08:02:32.533Z,17.04
2022-10-17T08:05:19.730Z,17.14
2022-10-17T08:08:06.662Z,17.23
2022-10-17T08:10:55.366Z,17.27
2022-10-17T08:13:42.485Z,17.38
2022-10-17T08:16:29.549Z,17.39
2022-10-17T08:19:16.434Z,17.44
2022-10-17T08:22:03.454Z,17.52
2022-10-17T08:24:50.380Z,17.52
2022-10-17T08:27:37.387Z,17.67
2022-10-17T08:30:24.719Z,17.65
2022-10-17T08:33:12.721Z,17.76
2022-10-17T08:36:01.327Z,17.85
2022-10-17T08:38:52.639Z,17.97
2022-10-17T08:42:14.602Z,18.10
2022-10-17T08:45:26.531Z,18.12
2022-10-17T08:48:19.874Z,18.12
2022-10-17T08:51:16.920Z,18.23
2022-10-17T08:54:16.655Z,18.20
2022-10-17T08:57:03.787Z,18.18
2022-10-17T08:59:53.428Z,18.13
2022-10-17T09:02:50.643Z,18.31
2022-10-17T09:10:18.730Z,18.40
2022-10-17T09:17:44.217Z,18.82
2022-10-17T09:20:49.815Z,18.88
2022-10-17T09:27:48.024Z,19.27
2022-10-17T09:31:21.698Z,19.32
2022-10-17T09:34:10.725Z,19.40
2022-10-17T09:37:02.381Z,19.48
2022-10-17T09:39:49.675Z,19.45
2022-10-17T09:42:37.150Z,19.53
2022-10-17T09:45:27.342Z,19.77
2022-10-17T09:48:28.032Z,19.83
2022-10-17T09:51:26.092Z,19.79
2022-10-17T09:54:27.172Z,19.92
2022-10-17T09:57:15.961Z,20.09
2022-10-17T10:00:06.998Z,20.08
2022-10-17T10:03:12.577Z,20.19
2022-10-17T10:06:07.321Z,20.52
2022-10-17T10:08:58.703Z,20.80
2022-10-17T10:11:57.669Z,20.85
2022-10-17T10:14:47.341Z,20.92
2022-10-17T10:17:41.944Z,20.99
2022-10-17T10:20:37.500Z,21.17
2022-10-17T10:23:24.456Z,21.43
2022-10-17T10:26:22.403Z,21.65
2022-10-17T10:29:31.254Z,21.53
2022-10-17T10:32:34.529Z,21.23
2022-10-17T10:35:31.397Z,21.29
2022-10-17T10:38:18.462Z,21.35
2022-10-17T10:41:08.208Z,21.51
2022-10-17T10:43:56.493Z,21.75
2022-10-17T10:46:43.562Z,21.92
2022-10-17T10:49:32.299Z,22.06
2022-10-17T10:52:26.893Z,22.20
2022-10-17T10:55:23.021Z,22.34
2022-10-17T10:58:43.441Z,22.51
2022-10-17T11:01:48.292Z,22.59
2022-10-17T11:05:14.114Z,22.57
2022-10-17T11:08:14.178Z,22.49
2022-10-17T11:11:01.071Z,22.42
2022-10-17T11:14:21.985Z,22.54
2022-10-17T11:17:34.933Z,22.44
2022-10-17T11:20:28.998Z,22.38
2022-10-17T11:23:21.647Z,22.51
2022-10-17T11:26:26.117Z,22.47
2022-10-17T11:29:13.955Z,22.45
2022-10-17T11:32:09.846Z,22.45
2022-10-17T11:35:05.789Z,22.28
2022-10-17T11:38:12.138Z,22.26
2022-10-17T11:41:00.287Z,22.16
2022-10-17T11:44:19.162Z,22.11
2022-10-17T11:47:27.010Z,22.09
2022-10-17T11:53:33.256Z,22.23
2022-10-17T11:56:52.241Z,22.07
2022-10-17T11:59:48.217Z,21.94
2022-10-17T12:03:07.286Z,21.97
2022-10-17T12:05:57.336Z,21.93
2022-10-17T12:09:00.842Z,22.22
2022-10-17T12:11:55.724Z,22.29
2022-10-17T12:14:48.917Z,22.53
2022-10-17T12:17:39.524Z,22.51
2022-10-17T12:20:51.236Z,22.38
2022-10-17T12:23:39.032Z,22.37
2022-10-17T12:26:28.451Z,22.23
2022-10-17T12:29:29.937Z,22.11
2022-10-17T12:32:17.136Z,21.74
2022-10-17T12:35:05.207Z,21.53
2022-10-17T12:38:01.927Z,21.29
2022-10-17T12:40:53.362Z,21.27
2022-10-17T12:43:52.926Z,21.23
2022-10-17T12:46:47.601Z,21.29
2022-10-17T12:49:40.405Z,21.52
2022-10-17T12:52:47.400Z,21.75
2022-10-17T12:55:35.913Z,21.74
2022-10-17T12:58:23.218Z,21.72
2022-10-17T13:01:24.263Z,21.73
2022-10-17T13:04:11.949Z,21.64
2022-10-17T13:07:01.147Z,21.46
2022-10-17T13:09:49.894Z,21.50
2022-10-17T13:12:41.134Z,21.43
2022-10-17T13:15:28.709Z,21.37
2022-10-17T13:18:24.995Z,21.29
2022-10-17T13:21:16.537Z,21.26
2022-10-17T13:24:23.665Z,21.16
2022-10-17T13:27:27.879Z,21.11
2022-10-17T13:30:31.960Z,21.08
2022-10-17T13:33:39.399Z,21.00
2022-10-17T13:36:28.352Z,21.03
2022-10-17T13:39:23.086Z,21.05
2022-10-17T13:42:27.709Z,21.07
2022-10-17T13:45:38.144Z,21.08
2022-10-17T13:48:28.757Z,21.15
2022-10-17T13:51:15.736Z,21.28
2022-10-17T13:54:16.971Z,21.25
2022-10-17T13:57:05.342Z,21.27
2022-10-17T14:00:01.540Z,21.27
2022-10-17T14:02:48.569Z,21.08
2022-10-17T14:05:35.747Z,20.90
2022-10-17T14:08:23.829Z,20.71
2022-10-17T14:11:20.265Z,20.76
2022-10-17T14:14:19.162Z,20.60
2022-10-17T14:17:24.598Z,20.55
2022-10-17T14:21:19.452Z,20.44
2022-10-17T14:23:40.730Z,20.33
2022-10-17T14:26:28.391Z,20.26
2022-10-17T14:29:29.200Z,20.28
2022-10-17T14:32:18.002Z,20.21
2022-10-17T14:35:19.127Z,20.20
2022-10-17T14:38:15.192Z,20.10
2022-10-17T14:41:43.502Z,20.04
2022-10-17T14:44:33.601Z,19.95
2022-10-17T14:47:51.963Z,19.92
2022-10-17T14:50:33.439Z,19.90
2022-10-17T14:53:21.686Z,19.84
2022-10-17T14:56:26.801Z,19.76
2022-10-17T14:59:30.045Z,19.66
2022-10-17T15:02:26.243Z,19.55
2022-10-17T15:05:14.225Z,19.45
2022-10-17T15:08:01.367Z,19.37
2022-10-17T15:10:50.041Z,19.28
2022-10-17T15:13:42.142Z,19.17
2022-10-17T15:16:33.394Z,19.07
2022-10-17T15:19:20.350Z,18.97
2022-10-17T15:22:07.305Z,18.88
2022-10-17T15:24:57.183Z,18.80
2022-10-17T15:27:44.265Z,18.73
2022-10-17T15:30:34.673Z,18.69
2022-10-17T15:33:23.631Z,18.67
2022-10-17T15:36:28.501Z,18.62
2022-10-17T15:39:15.491Z,18.59
2022-10-17T15:42:02.488Z,18.57
2022-10-17T15:44:50.376Z,18.53
2022-10-17T15:47:37.886Z,18.54
2022-10-17T15:50:24.842Z,18.54
2022-10-17T15:53:12.880Z,18.51
2022-10-17T15:56:00.389Z,18.48
2022-10-17T15:58:47.677Z,18.42
2022-10-17T16:01:35.607Z,18.37
2022-10-17T16:04:24.165Z,18.33
2022-10-17T16:07:11.271Z,18.23
2022-10-17T16:09:58.280Z,18.17
2022-10-17T16:12:45.606Z,18.11
2022-10-17T16:15:32.618Z,18.08
2022-10-17T16:18:20.196Z,18.00
2022-10-17T16:21:09.390Z,17.96
2022-10-17T16:23:57.065Z,17.92
2022-10-17T16:26:44.185Z,17.87
2022-10-17T16:29:31.338Z,17.84
2022-10-17T16:32:18.357Z,17.80
2022-10-17T16:35:07.240Z,17.78
2022-10-17T16:37:54.595Z,17.75
2022-10-17T16:40:41.675Z,17.72
2022-10-17T16:43:32.341Z,17.70
2022-10-17T16:46:20.063Z,17.66
2022-10-17T16:49:07.865Z,17.64
2022-10-17T16:51:54.769Z,17.63
2022-10-17T16:54:41.733Z,17.63
2022-10-17T16:57:28.717Z,17.63
2022-10-17T17:00:16.260Z,17.65
2022-10-17T17:03:03.222Z,17.68
2022-10-17T17:05:51.845Z,17.69
2022-10-17T17:08:38.824Z,17.71
2022-10-17T17:11:27.391Z,17.82
2022-10-17T17:14:14.471Z,17.90
2022-10-17T17:17:01.433Z,17.97
2022-10-17T17:19:48.413Z,17.92
2022-10-17T17:22:35.406Z,17.87
2022-10-17T17:25:22.935Z,17.84
2022-10-17T17:28:09.898Z,17.82
2022-10-17T17:30:56.843Z,17.79
2022-10-17T17:33:46.090Z,17.77
2022-10-17T17:36:36.401Z,17.74
2022-10-17T17:39:23.301Z,17.66
2022-10-17T17:42:10.321Z,17.66
2022-10-17T17:44:57.290Z,17.69
2022-10-17T17:47:44.696Z,17.65
2022-10-17T17:50:32.871Z,17.77
2022-10-17T17:53:19.807Z,17.79
2022-10-17T17:56:09.106Z,17.71
2022-10-17T17:59:01.290Z,17.78
2022-10-17T18:01:48.361Z,17.78
2022-10-17T18:04:35.363Z,17.73
2022-10-17T18:07:22.996Z,17.81
2022-10-17T18:12:57.808Z,17.72
2022-10-17T18:15:44.911Z,17.71
2022-10-17T18:18:31.871Z,17.67
2022-10-17T18:21:19.441Z,17.59
2022-10-17T18:24:07.345Z,17.55
2022-10-17T18:26:59.661Z,17.55
2022-10-17T18:29:46.826Z,17.49
2022-10-17T18:32:34.028Z,17.43
2022-10-17T18:35:21.389Z,17.33
2022-10-17T18:38:08.753Z,17.28
2022-10-17T18:41:17.500Z,17.20
2022-10-17T18:44:04.788Z,17.13
2022-10-17T18:46:52.633Z,17.07
2022-10-17T18:49:39.665Z,17.04
2022-10-17T18:52:26.609Z,17.02
2022-10-17T18:55:14.665Z,16.98
2022-10-17T18:58:01.630Z,16.92
2022-10-17T19:00:52.108Z,16.91
2022-10-17T19:03:39.065Z,16.85
2022-10-17T19:06:28.873Z,16.84
2022-10-17T19:09:16.413Z,16.74
2022-10-17T19:12:03.474Z,16.65
2022-10-17T19:14:50.980Z,16.62
2022-10-17T19:17:38.066Z,16.54
2022-10-17T19:20:25.025Z,16.55
2022-10-17T19:23:12.248Z,16.48
2022-10-17T19:26:10.626Z,16.43
2022-10-17T19:29:00.147Z,16.41
2022-10-17T19:31:48.518Z,16.36
2022-10-17T19:34:35.533Z,16.31
2022-10-17T19:37:22.453Z,16.38
2022-10-17T19:40:10.203Z,16.32
2022-10-17T19:42:57.116Z,16.38
2022-10-17T19:45:44.065Z,16.37
2022-10-17T19:48:32.983Z,16.29
2022-10-17T19:51:24.402Z,16.33
2022-10-17T19:54:11.462Z,16.28
2022-10-17T19:56:58.470Z,16.24
2022-10-17T19:59:45.535Z,16.24
2022-10-17T20:02:32.782Z,16.17
2022-10-17T20:05:23.554Z,16.11
2022-10-17T20:08:13.471Z,16.08
2022-10-17T20:11:05.973Z,16.03
2022-10-17T20:13:54.228Z,16.03
2022-10-17T20:16:41.137Z,15.99
2022-10-17T20:19:28.058Z,15.96
2022-10-17T20:22:14.982Z,15.98
2022-10-17T20:25:01.981Z,15.96
2022-10-17T20:27:48.905Z,15.96
2022-10-17T20:30:35.962Z,15.95
2022-10-17T20:33:22.990Z,15.95
2022-10-17T20:36:11.921Z,15.90
2022-10-17T20:38:59.326Z,15.88
2022-10-17T20:41:46.885Z,15.85
2022-10-17T20:44:33.916Z,15.82
2022-10-17T20:47:33.115Z,15.75
2022-10-17T20:50:27.888Z,15.72
2022-10-17T20:53:36.173Z,15.68
2022-10-17T20:56:28.282Z,15.67
2022-10-17T20:59:17.683Z,15.63
2022-10-17T21:02:05.976Z,15.59
2022-10-17T21:04:53.122Z,15.57
2022-10-17T21:07:40.205Z,15.55
2022-10-17T21:10:35.668Z,15.57
2022-10-17T21:13:23.515Z,15.53
2022-10-17T21:16:17.351Z,15.51
2022-10-17T21:19:05.863Z,15.48
2022-10-17T21:21:52.832Z,15.45
2022-10-17T21:24:40.059Z,15.41
2022-10-17T21:27:30.379Z,15.38
2022-10-17T21:30:18.523Z,15.34
2022-10-17T21:33:05.483Z,15.34
2022-10-17T21:35:55.111Z,15.30
2022-10-17T21:38:42.561Z,15.28
2022-10-17T21:41:31.266Z,15.25
2022-10-17T21:44:21.054Z,15.22
2022-10-17T21:47:08.010Z,15.19
2022-10-17T21:49:54.936Z,15.16
2022-10-17T21:52:41.897Z,15.12
2022-10-17T21:55:28.946Z,15.11
2022-10-17T21:58:15.916Z,15.06
2022-10-17T22:01:05.729Z,15.05
2022-10-17T22:03:56.302Z,14.99
2022-10-17T22:06:45.290Z,14.98
2022-10-17T22:09:32.233Z,14.95
2022-10-17T22:12:19.449Z,14.93
2022-10-17T22:15:07.110Z,15.06
2022-10-17T22:17:54.105Z,15.02
2022-10-17T22:20:41.326Z,14.97
2022-10-17T22:23:29.210Z,14.97
2022-10-17T22:26:16.183Z,14.95
2022-10-17T22:29:05.007Z,14.93
2022-10-17T22:31:52.004Z,14.91
2022-10-17T22:34:38.969Z,14.87
2022-10-17T22:37:25.930Z,14.85
2022-10-17T22:40:13.105Z,14.86
2022-10-17T22:43:00.006Z,14.86
2022-10-17T22:45:54.705Z,14.82
2022-10-17T22:48:41.870Z,14.79
2022-10-17T22:51:28.916Z,14.77
2022-10-17T22:54:15.973Z,14.75
2022-10-17T22:57:02.934Z,14.74
2022-10-17T22:59:49.847Z,14.75
2022-10-17T23:02:37.342Z,14.83
2022-10-17T23:05:24.266Z,14.88
2022-10-17T23:08:12.065Z,14.91
2022-10-17T23:10:59.556Z,14.88
2022-10-17T23:13:46.619Z,14.87
2022-10-17T23:16:33.630Z,14.84
2022-10-17T23:19:20.598Z,14.85
2022-10-17T23:22:08.376Z,14.85
2022-10-17T23:24:55.300Z,14.84
2022-10-17T23:27:42.268Z,14.88
2022-10-17T23:30:31.430Z,14.85
2022-10-17T23:33:18.345Z,14.82
2022-10-17T23:36:05.761Z,14.78
2022-10-17T23:38:55.070Z,14.76
2022-10-17T23:41:45.481Z,14.73
2022-10-17T23:44:32.385Z,14.73
2022-10-17T23:47:19.466Z,14.71
2022-10-17T23:50:07.116Z,14.72
2022-10-17T23:52:54.161Z,14.72
2022-10-17T23:55:41.061Z,14.71
2022-10-17T23:58:28.115Z,14.70
